Briefing drone pour Leucate

Rechercher une autre localisation

Conditions de vol :


Nous sommes le : Mardi 03 août 2021
Il est 01:38 UTC (03:38 LT)

Lever de soleil : 04:14 UTC (06:14 LT)
Coucher de soleil : 19:33 UTC (21:33 LT)

Météo

L'essentiel des conditions de vol

VIGILANCE MÉTÉO FRANCE - Aude (11)
Pas de vigilances particulieres
CARTE TEMSI
CARTES DES FRONTS
METAR de LFMP
LFMP 030130Z AUTO 24006KT CAVOK 19/12 Q1016

Date d'émission: 03/08/2021
Heure d'émission: 01:30 UTC
Vent: 240° pour 6 KT (11 km/h)
Visibilité horizontale: > 10 km
Plafond : Plafond et visibilité OK (CAVOK)
Température: 19 °C
Point de rosée: 12 °C
Humidité: 64%
Pression (QNH): 1016 hPa
TAF de LFMP
LFMP 022133Z 0221/0315 CNL

Conditions prévues :

Heure d'émission : Bulletin éffectué le 02 à 21:00 UTC
Prévision : Valide du 02 a 21:00 UTC au 03 a 15:00 UTC
Nuages : à 0ft (0 m)
WEBCAM POUR LEUCATE

Réglementation

Voler en sécurité

CARTES AERONAUTIQUE 1/500.000
CARTES VAC (LFMP)
SUP AIP




Chargement des AIP...
NOTAM (LEUCATE + Terrain à proximité / FIR )




Chargement des NOTAMS...
CONTACT PREFECTURE 11


Avertissement : Les données mises à disposition sont indicatives. Oxygène Drone ne pourra être tenu responsable de dégâts causés aux biens et aux personnes.